Time;durP1;ratioP1;P1;durP2;ratioP2;P2;SDS_P1;SDS_P2;PMS_P1;PMS_P2;Temp;Humidity;BMP_temperature;BMP_pressure;BME280_temperature;BME280_humidity;BME280_pressure;Samples;Min_cycle;Max_cycle;Signal;HPM_P1;HPM_P2
2023/05/27 00:00:45;;;;;;;10.70;2.50;;;10.90;99.90;;;;;;4989704;28;20202;-77
2023/05/27 00:03:12;;;;;;;9.97;2.43;;;10.90;99.90;;;;;;4989576;28;20232;-79
2023/05/27 00:05:39;;;;;;;8.30;2.70;;;10.80;99.90;;;;;;4973311;28;20237;-79
2023/05/27 00:08:06;;;;;;;10.77;2.57;;;10.80;99.90;;;;;;4974519;28;20189;-79
2023/05/27 00:10:33;;;;;;;9.93;3.10;;;10.80;99.90;;;;;;4989559;28;20301;-78
2023/05/27 00:13:00;;;;;;;6.97;2.50;;;10.70;99.90;;;;;;4989338;28;20666;-80
2023/05/27 00:15:27;;;;;;;6.67;2.57;;;10.70;99.90;;;;;;4974504;28;20651;-81
2023/05/27 00:17:54;;;;;;;7.70;2.50;;;10.70;99.90;;;;;;4974390;28;20201;-85
2023/05/27 00:20:24;;;;;;;10.10;2.60;;;10.70;99.90;;;;;;4973620;28;20202;-75
2023/05/27 00:22:51;;;;;;;12.90;2.77;;;10.60;99.90;;;;;;4989589;28;20193;-85
2023/05/27 00:25:20;;;;;;;14.07;2.67;;;10.60;99.90;;;;;;4973212;28;20209;-78
2023/05/27 00:27:48;;;;;;;10.53;2.90;;;10.50;99.90;;;;;;4973317;28;20277;-83
2023/05/27 00:30:15;;;;;;;11.30;2.37;;;10.50;99.90;;;;;;4989774;28;20569;-78
2023/05/27 00:32:42;;;;;;;10.93;2.80;;;10.50;99.90;;;;;;4972922;28;20201;-80
2023/05/27 00:35:10;;;;;;;8.50;2.57;;;10.50;99.90;;;;;;4974445;28;20178;-79
2023/05/27 00:37:37;;;;;;;9.67;2.70;;;10.40;99.90;;;;;;4989281;28;20571;-78
2023/05/27 00:40:07;;;;;;;8.87;2.50;;;10.40;99.90;;;;;;4988955;28;20569;-79
2023/05/27 00:42:36;;;;;;;9.83;3.07;;;10.30;99.90;;;;;;4973193;28;20197;-79
2023/05/27 00:45:04;;;;;;;10.47;2.47;;;10.30;99.90;;;;;;4988756;28;20617;-78
2023/05/27 00:47:33;;;;;;;10.03;2.40;;;10.30;99.90;;;;;;4956617;28;20628;-77
2023/05/27 00:50:00;;;;;;;9.93;2.63;;;10.30;99.90;;;;;;4973922;28;20264;-78
2023/05/27 00:52:29;;;;;;;11.03;3.00;;;10.20;99.90;;;;;;4988998;28;20276;-77
2023/05/27 00:54:57;;;;;;;8.10;2.70;;;10.20;99.90;;;;;;4973821;28;20212;-76
2023/05/27 00:57:25;;;;;;;8.27;2.57;;;10.10;99.90;;;;;;4988776;28;20237;-81
2023/05/27 00:59:52;;;;;;;12.27;2.90;;;10.10;99.90;;;;;;4972076;28;20201;-79
2023/05/27 01:02:20;;;;;;;9.03;2.53;;;10.00;99.90;;;;;;4988861;28;20249;-79
2023/05/27 01:04:48;;;;;;;13.07;3.20;;;10.00;99.90;;;;;;4973268;28;20284;-79
2023/05/27 01:07:43;;;;;;;8.70;2.47;;;10.00;99.90;;;;;;4972638;28;20297;-78
2023/05/27 01:10:29;;;;;;;11.10;2.90;;;9.90;99.90;;;;;;4951945;28;20289;-78
2023/05/27 01:13:22;;;;;;;9.67;2.77;;;9.90;99.90;;;;;;4953265;28;20654;-78
2023/05/27 01:33:08;;;;;;;7.90;2.47;;;9.70;99.90;;;;;;5048556;28;20652;-70
2023/05/27 01:35:49;;;;;;;13.83;2.87;;;9.70;99.90;;;;;;5045539;28;20237;-70
2023/05/27 01:38:20;;;;;;;11.17;2.87;;;9.60;99.90;;;;;;5029945;28;20234;-70
2023/05/27 01:40:48;;;;;;;10.37;2.63;;;9.60;99.90;;;;;;5048745;28;20215;-70
2023/05/27 01:43:17;;;;;;;7.50;2.63;;;9.60;99.90;;;;;;5049600;28;20270;-70
2023/05/27 01:45:44;;;;;;;6.47;2.67;;;9.70;99.90;;;;;;5048528;28;20265;-70
2023/05/27 01:48:11;;;;;;;7.40;2.87;;;9.70;99.90;;;;;;5048605;28;20226;-73
2023/05/27 01:50:39;;;;;;;10.50;2.97;;;9.60;99.90;;;;;;5048167;28;20237;-73
2023/05/27 01:53:06;;;;;;;9.87;3.00;;;9.60;99.90;;;;;;5049560;28;20187;-74
2023/05/27 01:55:33;;;;;;;8.80;2.60;;;9.60;99.90;;;;;;5048460;28;20211;-73
2023/05/27 01:57:59;;;;;;;7.00;2.60;;;9.60;99.90;;;;;;5031703;28;20223;-74
2023/05/27 02:00:26;;;;;;;9.23;2.63;;;9.60;99.90;;;;;;5048045;28;20211;-74
2023/05/27 02:02:53;;;;;;;8.60;2.60;;;9.60;99.90;;;;;;5048275;28;20195;-74
2023/05/27 02:05:20;;;;;;;9.63;2.80;;;9.60;99.90;;;;;;5048069;28;20219;-74
2023/05/27 02:07:47;;;;;;;9.70;2.70;;;9.60;99.90;;;;;;5049253;28;20222;-74
2023/05/27 02:10:14;;;;;;;11.30;2.57;;;9.60;99.90;;;;;;5031087;28;20269;-73
2023/05/27 02:12:41;;;;;;;10.77;2.60;;;9.60;99.90;;;;;;5047541;28;20215;-73
2023/05/27 02:15:08;;;;;;;10.97;3.03;;;9.50;99.90;;;;;;5048809;28;20718;-72
2023/05/27 02:17:36;;;;;;;12.30;3.07;;;9.50;99.90;;;;;;5047590;28;20207;-72
2023/05/27 02:20:03;;;;;;;10.57;2.97;;;9.50;99.90;;;;;;5047359;28;20288;-72
2023/05/27 02:22:31;;;;;;;10.07;3.03;;;9.50;99.90;;;;;;5047430;28;20619;-72
2023/05/27 02:24:58;;;;;;;15.40;3.40;;;9.50;99.90;;;;;;5048955;28;20242;-75
2023/05/27 02:27:24;;;;;;;10.23;3.03;;;9.40;99.90;;;;;;5047573;28;20191;-74
2023/05/27 02:29:51;;;;;;;10.20;2.73;;;9.40;99.90;;;;;;5047450;28;20245;-72
2023/05/27 02:32:18;;;;;;;8.57;2.80;;;9.40;99.90;;;;;;5047314;28;20686;-75
2023/05/27 02:34:46;;;;;;;14.82;3.85;;;9.30;99.90;;;;;;5046857;28;20430;-72
2023/05/27 02:37:12;;;;;;;10.40;2.80;;;9.30;99.90;;;;;;5047414;28;20223;-73
2023/05/27 02:39:40;;;;;;;11.77;3.27;;;9.30;99.90;;;;;;5048712;28;20686;-76
2023/05/27 02:42:08;;;;;;;11.63;2.77;;;9.40;99.90;;;;;;5029704;28;20659;-78
2023/05/27 02:44:34;;;;;;;8.50;2.60;;;9.40;99.90;;;;;;5035404;28;20274;-75
2023/05/27 02:47:01;;;;;;;9.47;2.80;;;9.40;99.90;;;;;;5034012;28;20655;-77
2023/05/27 02:49:28;;;;;;;11.23;2.60;;;9.40;99.90;;;;;;5035552;28;20695;-85
2023/05/27 02:51:55;;;;;;;9.90;2.93;;;9.40;99.90;;;;;;5034793;28;20243;-83
2023/05/27 02:54:22;;;;;;;10.57;3.10;;;9.40;99.90;;;;;;5034364;28;20223;-84
2023/05/27 02:56:50;;;;;;;6.67;2.40;;;9.40;99.90;;;;;;5034208;28;20596;-86
2023/05/27 02:59:17;;;;;;;13.23;3.30;;;9.40;99.90;;;;;;5034155;28;20211;-87
2023/05/27 03:01:43;;;;;;;9.17;2.70;;;9.50;99.90;;;;;;5017729;28;20218;-85
2023/05/27 03:04:11;;;;;;;11.43;2.93;;;9.40;99.90;;;;;;5017598;28;20225;-85
2023/05/27 03:06:37;;;;;;;9.03;2.87;;;9.30;99.90;;;;;;5033989;28;20231;-85
2023/05/27 03:09:04;;;;;;;11.77;3.07;;;9.30;99.90;;;;;;5033920;28;20270;-86
2023/05/27 03:11:31;;;;;;;10.60;2.70;;;9.40;99.90;;;;;;5017478;28;20243;-87
2023/05/27 03:13:58;;;;;;;15.43;2.97;;;9.40;99.90;;;;;;5034187;28;20250;-83
2023/05/27 03:16:25;;;;;;;11.67;3.27;;;9.30;99.90;;;;;;5033838;28;20237;-75
2023/05/27 03:18:52;;;;;;;15.53;3.27;;;9.30;99.90;;;;;;5033291;28;20210;-75
2023/05/27 03:21:19;;;;;;;10.13;2.90;;;9.30;99.90;;;;;;5033620;28;20658;-75
2023/05/27 03:23:46;;;;;;;9.73;2.63;;;9.30;99.90;;;;;;5034510;28;20188;-75
2023/05/27 03:26:13;;;;;;;9.97;2.70;;;9.30;99.90;;;;;;5033213;28;20253;-75
2023/05/27 03:28:40;;;;;;;11.73;2.80;;;9.30;99.90;;;;;;5033151;28;20234;-73
2023/05/27 03:31:08;;;;;;;8.70;2.20;;;9.30;99.90;;;;;;5034108;28;20579;-72
2023/05/27 03:33:37;;;;;;;11.37;2.83;;;9.40;99.90;;;;;;5034383;28;20267;-71
2023/05/27 03:36:04;;;;;;;10.03;2.77;;;9.40;99.90;;;;;;5033007;28;20221;-72
2023/05/27 03:38:31;;;;;;;10.07;2.80;;;9.40;99.90;;;;;;5033114;28;20191;-71
2023/05/27 03:40:58;;;;;;;9.43;2.80;;;9.40;99.90;;;;;;5033411;28;20254;-74
2023/05/27 03:43:25;;;;;;;8.97;2.57;;;9.50;99.90;;;;;;5032969;28;20666;-72
2023/05/27 03:45:51;;;;;;;11.53;3.17;;;9.60;99.90;;;;;;5032781;28;20759;-72
2023/05/27 03:48:19;;;;;;;10.57;2.67;;;9.50;99.90;;;;;;5034155;28;20210;-72
2023/05/27 03:50:46;;;;;;;14.03;2.90;;;9.50;99.90;;;;;;5034077;28;20211;-71
2023/05/27 03:53:13;;;;;;;13.90;2.73;;;9.60;99.90;;;;;;5032708;28;20781;-72
2023/05/27 03:55:39;;;;;;;9.13;2.70;;;9.60;99.90;;;;;;5031557;28;20212;-71
2023/05/27 03:58:06;;;;;;;10.23;2.57;;;9.70;99.90;;;;;;5032888;28;20236;-71
2023/05/27 04:00:35;;;;;;;12.07;2.93;;;9.70;99.90;;;;;;5032384;28;20690;-71
2023/05/27 04:03:02;;;;;;;10.57;2.90;;;9.70;99.90;;;;;;5032529;28;20283;-72
2023/05/27 04:05:29;;;;;;;14.57;2.70;;;9.80;99.90;;;;;;5032311;28;20714;-72
2023/05/27 04:07:56;;;;;;;10.50;2.90;;;9.90;99.90;;;;;;5032721;28;20261;-72
2023/05/27 04:10:23;;;;;;;10.87;2.90;;;9.90;99.90;;;;;;5032626;28;20219;-72
2023/05/27 04:12:50;;;;;;;11.80;2.67;;;10.00;99.90;;;;;;5033589;28;20215;-72
2023/05/27 04:15:18;;;;;;;7.23;3.00;;;10.00;99.90;;;;;;5032337;28;20219;-72
2023/05/27 04:17:45;;;;;;;10.17;2.40;;;10.00;99.90;;;;;;5032286;28;20200;-72
2023/05/27 04:20:14;;;;;;;7.63;2.90;;;10.10;99.90;;;;;;5032151;28;20691;-72
2023/05/27 04:22:43;;;;;;;8.43;2.97;;;10.10;99.90;;;;;;5033451;28;20187;-72
2023/05/27 04:25:10;;;;;;;7.30;2.40;;;10.10;99.90;;;;;;5016002;28;20234;-72
2023/05/27 04:27:37;;;;;;;8.43;3.13;;;10.00;99.90;;;;;;5032109;28;20231;-71
2023/05/27 04:30:05;;;;;;;11.70;2.90;;;10.10;99.90;;;;;;5031921;28;20713;-72
2023/05/27 04:32:37;;;;;;;8.13;2.83;;;10.10;99.90;;;;;;5031841;28;20691;-71
2023/05/27 04:35:09;;;;;;;10.77;2.50;;;10.20;99.90;;;;;;5032197;28;20749;-73
2023/05/27 04:37:40;;;;;;;9.43;2.70;;;10.20;99.90;;;;;;5033198;28;20183;-73
2023/05/27 04:40:08;;;;;;;10.20;2.57;;;10.20;99.90;;;;;;5031780;28;20281;-72
2023/05/27 04:42:38;;;;;;;8.70;2.43;;;10.20;99.90;;;;;;5033077;28;20242;-72
2023/05/27 04:45:06;;;;;;;8.00;2.80;;;10.30;99.90;;;;;;5031709;28;20258;-71
2023/05/27 04:47:36;;;;;;;7.83;2.77;;;10.30;99.90;;;;;;5031948;28;20196;-72
2023/05/27 04:50:08;;;;;;;9.03;2.70;;;10.40;99.90;;;;;;5033241;28;20666;-72
2023/05/27 04:52:38;;;;;;;9.97;2.70;;;10.40;99.90;;;;;;5031716;28;20250;-72
2023/05/27 04:55:05;;;;;;;8.40;2.40;;;10.40;99.90;;;;;;5032719;28;20265;-72
2023/05/27 04:57:33;;;;;;;9.60;2.77;;;10.50;99.90;;;;;;5031571;28;20196;-72
2023/05/27 05:02:34;;;;;;;10.27;3.03;;;10.40;99.90;;;;;;5031778;28;20648;-73
2023/05/27 05:05:02;;;;;;;10.03;3.07;;;10.50;99.90;;;;;;5015328;28;20223;-73
2023/05/27 05:07:30;;;;;;;11.07;2.70;;;10.50;99.90;;;;;;5031118;28;20199;-74
2023/05/27 05:09:58;;;;;;;8.53;2.60;;;10.50;99.90;;;;;;5032749;28;20279;-74
2023/05/27 05:12:25;;;;;;;8.57;2.63;;;10.60;99.90;;;;;;5031543;28;20239;-74
2023/05/27 05:14:52;;;;;;;9.23;2.70;;;10.70;99.90;;;;;;5031554;28;20306;-74
2023/05/27 05:17:23;;;;;;;9.80;2.70;;;10.70;99.90;;;;;;5033035;28;20632;-73
2023/05/27 05:19:52;;;;;;;9.67;2.50;;;10.90;99.90;;;;;;5031554;28;20219;-73
2023/05/27 05:22:20;;;;;;;9.40;2.60;;;11.00;99.90;;;;;;5031626;28;20196;-73
2023/05/27 05:24:47;;;;;;;5.30;2.47;;;11.00;99.90;;;;;;5015168;28;20215;-74
2023/05/27 05:27:14;;;;;;;9.77;2.60;;;11.10;99.90;;;;;;5031291;28;20755;-73
2023/05/27 05:29:42;;;;;;;7.73;2.70;;;11.20;99.90;;;;;;5032617;28;20239;-73
2023/05/27 05:32:11;;;;;;;9.50;2.67;;;11.30;99.90;;;;;;5030989;28;20235;-74
2023/05/27 05:34:39;;;;;;;7.50;2.33;;;11.40;99.90;;;;;;5032578;28;20230;-73
2023/05/27 05:37:06;;;;;;;8.70;2.33;;;11.40;99.90;;;;;;5031115;28;20200;-73
2023/05/27 05:39:33;;;;;;;8.07;2.67;;;11.60;99.90;;;;;;5030865;28;20219;-74
2023/05/27 05:42:00;;;;;;;8.40;2.63;;;11.60;99.90;;;;;;5014777;28;20206;-74
2023/05/27 05:44:27;;;;;;;6.80;2.47;;;11.60;99.90;;;;;;5032517;28;20265;-74
2023/05/27 05:46:53;;;;;;;8.97;2.80;;;11.70;99.90;;;;;;5032583;28;20191;-74
2023/05/27 05:49:20;;;;;;;9.37;2.50;;;11.70;99.90;;;;;;5030823;28;20246;-73
2023/05/27 05:51:47;;;;;;;5.57;2.00;;;11.80;99.90;;;;;;5031090;28;20268;-74
2023/05/27 05:54:14;;;;;;;5.77;2.17;;;11.90;99.90;;;;;;5030735;28;20311;-74
2023/05/27 05:56:41;;;;;;;6.43;2.17;;;12.00;99.90;;;;;;5030840;28;20246;-74
2023/05/27 05:59:08;;;;;;;4.77;1.90;;;12.20;99.90;;;;;;5014328;28;20273;-74
2023/05/27 06:01:35;;;;;;;5.97;2.00;;;12.30;99.90;;;;;;5032156;28;20187;-74
2023/05/27 06:04:04;;;;;;;7.30;2.00;;;12.40;99.90;;;;;;5031097;28;20225;-74
2023/05/27 06:06:31;;;;;;;7.00;2.20;;;12.50;99.90;;;;;;5030762;28;20283;-72
2023/05/27 06:08:58;;;;;;;5.17;2.03;;;12.60;99.90;;;;;;5030634;28;20258;-73
2023/05/27 06:11:26;;;;;;;6.17;2.60;;;12.60;99.90;;;;;;5032027;28;20246;-73
2023/05/27 06:13:53;;;;;;;8.47;2.30;;;12.60;99.90;;;;;;5030556;28;20308;-74
2023/05/27 06:16:20;;;;;;;6.97;2.10;;;12.70;99.90;;;;;;5030672;28;20208;-74
2023/05/27 06:18:48;;;;;;;11.47;2.10;;;12.70;99.90;;;;;;5033036;28;20294;-74
2023/05/27 06:21:14;;;;;;;6.70;2.00;;;12.80;99.90;;;;;;5034350;28;20191;-74
2023/05/27 06:23:41;;;;;;;5.83;2.07;;;12.90;99.90;;;;;;5017799;28;20616;-73
2023/05/27 06:26:08;;;;;;;7.00;2.20;;;13.00;99.90;;;;;;5034607;28;20196;-74
2023/05/27 06:28:35;;;;;;;6.37;1.90;;;13.10;99.90;;;;;;5035558;28;20222;-74
2023/05/27 06:31:02;;;;;;;4.50;1.83;;;13.10;99.90;;;;;;5034036;28;20699;-74
2023/05/27 06:33:29;;;;;;;8.80;2.27;;;13.20;99.90;;;;;;5034139;28;20682;-73
2023/05/27 06:35:56;;;;;;;5.03;1.80;;;13.20;99.90;;;;;;5035363;28;20207;-74
2023/05/27 06:38:23;;;;;;;6.67;2.30;;;13.20;99.90;;;;;;5034266;28;20238;-74
2023/05/27 06:40:51;;;;;;;5.73;2.13;;;13.30;99.90;;;;;;5035313;28;20211;-74
2023/05/27 06:43:18;;;;;;;4.97;2.00;;;13.40;99.90;;;;;;5034047;28;20218;-74
2023/05/27 06:45:45;;;;;;;4.13;1.80;;;13.60;99.90;;;;;;5034233;28;20220;-74
2023/05/27 06:48:27;;;;;;;8.10;2.10;;;13.70;99.90;;;;;;5035531;28;20188;-74
2023/05/27 06:50:55;;;;;;;5.13;1.63;;;13.80;99.90;;;;;;5033735;28;20216;-74
2023/05/27 06:53:22;;;;;;;8.33;2.23;;;13.90;99.90;;;;;;5017334;28;20269;-73
2023/05/27 06:55:48;;;;;;;8.97;1.90;;;13.90;99.90;;;;;;5035015;28;20204;-74
2023/05/27 06:58:15;;;;;;;5.67;1.90;;;14.00;99.90;;;;;;5035006;28;20190;-74
2023/05/27 07:00:42;;;;;;;4.50;1.70;;;14.00;99.90;;;;;;5033847;28;20246;-74
2023/05/27 07:03:09;;;;;;;8.00;1.90;;;14.20;99.90;;;;;;5033697;28;20599;-75
2023/05/27 07:05:36;;;;;;;5.50;1.80;;;14.30;99.90;;;;;;5034735;28;20227;-74
2023/05/27 07:08:05;;;;;;;3.77;1.90;;;14.30;99.90;;;;;;5033817;28;20209;-74
2023/05/27 07:10:32;;;;;;;4.63;1.70;;;14.40;99.90;;;;;;5033700;28;20226;-74
2023/05/27 07:12:59;;;;;;;6.47;1.80;;;14.40;99.90;;;;;;5016964;28;20222;-74
2023/05/27 07:15:31;;;;;;;6.00;2.20;;;14.50;99.90;;;;;;5034593;28;20311;-73
2023/05/27 07:17:58;;;;;;;6.73;2.00;;;14.60;99.90;;;;;;5034700;28;20182;-74
2023/05/27 07:20:25;;;;;;;6.67;2.30;;;14.70;99.90;;;;;;5017182;28;20223;-73
2023/05/27 07:22:52;;;;;;;6.57;1.80;;;14.70;99.90;;;;;;5034433;28;20267;-74
2023/05/27 07:25:19;;;;;;;5.77;1.70;;;14.60;99.90;;;;;;5033431;28;20216;-74
2023/05/27 07:27:46;;;;;;;9.47;3.97;;;14.80;99.90;;;;;;5034499;28;20187;-74
2023/05/27 07:30:13;;;;;;;7.70;2.93;;;15.00;99.90;;;;;;5032794;28;20281;-74
2023/05/27 07:32:40;;;;;;;7.37;2.90;;;15.10;99.90;;;;;;5032741;28;20744;-73
2023/05/27 07:35:07;;;;;;;5.13;1.70;;;15.20;99.90;;;;;;5033120;28;20220;-74
2023/05/27 07:37:34;;;;;;;6.27;2.23;;;15.30;99.90;;;;;;5032897;28;20207;-74
2023/05/27 07:40:01;;;;;;;4.30;1.80;;;15.30;99.90;;;;;;5016084;28;20223;-74
2023/05/27 07:42:28;;;;;;;4.70;1.73;;;15.40;99.90;;;;;;5034019;28;20195;-74
2023/05/27 07:44:58;;;;;;;4.43;1.70;;;15.50;99.90;;;;;;5034269;28;20223;-74
2023/05/27 07:47:25;;;;;;;3.53;1.47;;;15.50;99.90;;;;;;5032777;28;20195;-74
2023/05/27 07:49:52;;;;;;;7.23;1.70;;;15.60;99.90;;;;;;5033874;28;20218;-74
2023/05/27 07:52:19;;;;;;;4.30;1.67;;;15.50;99.90;;;;;;5032697;28;20222;-74
2023/05/27 07:54:47;;;;;;;5.07;1.30;;;15.50;99.90;;;;;;5032672;28;20637;-74
2023/05/27 07:57:21;;;;;;;2.97;1.33;;;15.70;99.90;;;;;;5034233;28;20186;-74
2023/05/27 07:59:49;;;;;;;4.83;1.57;;;15.80;99.90;;;;;;5032468;28;20219;-73
2023/05/27 08:02:16;;;;;;;4.50;1.70;;;15.90;99.90;;;;;;5033893;28;20686;-75
2023/05/27 08:04:44;;;;;;;5.50;1.50;;;16.10;99.90;;;;;;5015992;28;20247;-74
2023/05/27 08:07:11;;;;;;;3.47;1.30;;;16.30;99.90;;;;;;5032224;28;20218;-74
2023/05/27 08:09:38;;;;;;;4.00;1.40;;;16.40;99.90;;;;;;5032486;28;20251;-74
2023/05/27 08:12:06;;;;;;;2.77;1.20;;;16.50;99.90;;;;;;5032194;28;20303;-75
2023/05/27 08:14:34;;;;;;;9.13;1.97;;;16.40;99.90;;;;;;5032096;28;20212;-74
2023/05/27 08:17:01;;;;;;;2.50;1.23;;;16.30;99.90;;;;;;5016194;28;20199;-74
2023/05/27 08:19:28;;;;;;;5.40;1.40;;;16.80;99.90;;;;;;5032212;28;20701;-74
2023/05/27 08:21:56;;;;;;;4.13;1.37;;;17.50;99.90;;;;;;5033372;28;20188;-74
2023/05/27 08:24:24;;;;;;;4.47;1.60;;;18.10;99.90;;;;;;5032305;28;20215;-74
2023/05/27 08:26:51;;;;;;;3.13;1.47;;;18.60;97.70;;;;;;5032402;28;20203;-74
2023/05/27 08:29:18;;;;;;;3.87;1.27;;;19.40;97.30;;;;;;5032060;28;20251;-75
2023/05/27 08:31:45;;;;;;;4.23;1.33;;;20.00;94.80;;;;;;5033518;28;20228;-74
2023/05/27 08:34:13;;;;;;;3.40;1.30;;;20.40;91.90;;;;;;5032135;28;20297;-74
2023/05/27 08:36:40;;;;;;;5.10;1.50;;;20.50;91.40;;;;;;5032222;28;20230;-74
2023/05/27 08:39:07;;;;;;;3.00;1.30;;;20.40;90.00;;;;;;5033195;28;20414;-74
2023/05/27 08:41:35;;;;;;;3.35;1.50;;;20.70;88.30;;;;;;5031661;28;20246;-74
2023/05/27 08:44:02;;;;;;;3.33;1.43;;;20.90;84.20;;;;;;5015324;28;20745;-74
2023/05/27 08:46:49;;;;;;;2.77;1.00;;;21.20;80.30;;;;;;5033329;28;20290;-74
2023/05/27 08:49:19;;;;;;;3.10;1.50;;;21.00;77.70;;;;;;5032844;28;20238;-75
2023/05/27 08:51:46;;;;;;;4.30;1.23;;;21.00;78.30;;;;;;5031600;28;20653;-74
2023/05/27 08:54:13;;;;;;;4.38;1.10;;;21.00;75.30;;;;;;5031765;28;20231;-75
2023/05/27 08:56:42;;;;;;;2.53;1.30;;;21.10;73.80;;;;;;5032776;28;20233;-75
2023/05/27 08:59:11;;;;;;;3.87;1.20;;;21.30;76.60;;;;;;5031471;28;20219;-75
2023/05/27 09:01:39;;;;;;;2.50;1.20;;;21.20;73.70;;;;;;5031420;28;20223;-74
2023/05/27 09:04:06;;;;;;;4.65;1.20;;;21.60;74.60;;;;;;5031369;28;20306;-74
2023/05/27 09:06:33;;;;;;;3.90;1.40;;;21.60;71.30;;;;;;5031686;28;20302;-75
2023/05/27 09:09:00;;;;;;;5.22;1.58;;;21.70;69.50;;;;;;5031202;28;20219;-75
2023/05/27 09:11:28;;;;;;;2.97;1.23;;;22.00;68.70;;;;;;5031331;28;20262;-75
2023/05/27 09:13:56;;;;;;;2.50;1.20;;;21.80;71.00;;;;;;5032626;28;20246;-75
2023/05/27 09:16:23;;;;;;;3.83;1.40;;;21.70;69.70;;;;;;5031248;28;20241;-75
2023/05/27 09:18:50;;;;;;;2.47;1.10;;;21.50;69.40;;;;;;5031083;28;20205;-75
2023/05/27 09:21:18;;;;;;;3.60;1.20;;;21.50;70.70;;;;;;5031175;28;20685;-75
2023/05/27 09:23:45;;;;;;;1.93;1.10;;;21.50;67.80;;;;;;5031405;28;20203;-76
2023/05/27 09:26:13;;;;;;;3.60;0.90;;;22.00;70.10;;;;;;5031071;28;20207;-75
2023/05/27 09:28:40;;;;;;;2.25;0.93;;;21.90;65.60;;;;;;5031341;28;20195;-75
2023/05/27 09:31:08;;;;;;;2.90;1.20;;;21.80;63.10;;;;;;5030800;28;20702;-76
2023/05/27 09:33:38;;;;;;;2.97;1.20;;;22.00;61.80;;;;;;5032132;28;20277;-74
2023/05/27 09:36:08;;;;;;;4.32;1.40;;;22.00;65.00;;;;;;5031355;28;20202;-76
2023/05/27 09:38:36;;;;;;;3.73;1.20;;;21.90;64.00;;;;;;5032281;28;20559;-76
2023/05/27 09:41:03;;;;;;;2.90;1.17;;;22.10;63.80;;;;;;5031085;28;20207;-75
2023/05/27 09:43:31;;;;;;;4.47;1.13;;;22.50;63.10;;;;;;5031181;28;20221;-76
2023/05/27 09:46:01;;;;;;;2.60;1.07;;;22.70;61.60;;;;;;5031026;28;20211;-76
2023/05/27 09:48:31;;;;;;;2.70;1.02;;;22.80;59.20;;;;;;5031191;28;20215;-76
2023/05/27 09:51:00;;;;;;;2.35;1.00;;;23.10;58.60;;;;;;5032474;28;20219;-76
2023/05/27 09:53:28;;;;;;;3.87;1.10;;;23.10;57.10;;;;;;5034468;28;20211;-77
2023/05/27 09:55:56;;;;;;;2.92;1.17;;;23.00;57.10;;;;;;5035118;28;20219;-77
2023/05/27 09:58:24;;;;;;;4.05;1.10;;;23.10;57.10;;;;;;5034979;28;20191;-76
2023/05/27 10:00:52;;;;;;;2.80;1.00;;;23.40;56.50;;;;;;5035947;28;20211;-75
2023/05/27 10:03:27;;;;;;;3.03;1.20;;;23.80;55.00;;;;;;5035093;28;20223;-75
2023/05/27 10:05:55;;;;;;;4.22;1.33;;;24.00;53.00;;;;;;5035141;28;20219;-75
2023/05/27 10:08:22;;;;;;;2.85;0.80;;;24.00;54.00;;;;;;5034954;28;20199;-76
2023/05/27 10:10:53;;;;;;;2.17;0.90;;;23.90;51.70;;;;;;5034861;28;20532;-75
2023/05/27 10:13:21;;;;;;;2.15;0.95;;;23.90;50.50;;;;;;5035951;28;20306;-76
2023/05/27 10:15:51;;;;;;;1.50;0.93;;;24.40;50.00;;;;;;5034421;28;20215;-76
2023/05/27 10:18:28;;;;;;;2.22;1.00;;;24.20;49.30;;;;;;5018515;28;20572;-77
2023/05/27 10:20:57;;;;;;;2.35;1.00;;;24.40;50.40;;;;;;5018145;28;20682;-76
2023/05/27 10:23:28;;;;;;;3.10;1.33;;;24.50;49.80;;;;;;5018446;28;20271;-76
2023/05/27 10:26:07;;;;;;;1.60;0.90;;;24.90;50.20;;;;;;5034507;28;20247;-76
2023/05/27 10:28:39;;;;;;;2.25;0.85;;;24.80;50.00;;;;;;5034576;28;20218;-75
2023/05/27 10:31:16;;;;;;;2.65;1.00;;;25.20;50.30;;;;;;5035584;28;20242;-76
2023/05/27 10:33:50;;;;;;;2.22;0.90;;;25.40;48.50;;;;;;5035261;28;20211;-75
2023/05/27 10:36:23;;;;;;;2.90;1.00;;;25.70;48.80;;;;;;5033984;28;20204;-75
2023/05/27 10:39:02;;;;;;;2.60;0.90;;;26.10;47.60;;;;;;5050624;28;20210;-74
2023/05/27 10:41:42;;;;;;;2.10;1.20;;;26.20;45.60;;;;;;5034312;28;20201;-74
2023/05/27 10:44:10;;;;;;;2.00;1.00;;;26.20;44.20;;;;;;5033862;28;20211;-74
2023/05/27 10:46:40;;;;;;;4.30;1.17;;;26.20;45.10;;;;;;5033811;28;20192;-76
2023/05/27 10:49:16;;;;;;;2.85;1.00;;;25.80;43.90;;;;;;5017016;28;20278;-74
2023/05/27 10:51:44;;;;;;;2.53;1.17;;;26.30;46.60;;;;;;5034955;28;20588;-75
2023/05/27 10:54:12;;;;;;;2.88;1.20;;;26.30;45.30;;;;;;5033595;28;20309;-75
2023/05/27 10:56:52;;;;;;;2.35;1.00;;;26.30;44.30;;;;;;5034990;28;20207;-75
2023/05/27 10:59:23;;;;;;;5.32;1.50;;;26.60;46.10;;;;;;5033404;28;20627;-74
2023/05/27 11:01:53;;;;;;;1.45;1.00;;;26.10;43.40;;;;;;5033729;28;20191;-75
2023/05/27 11:04:24;;;;;;;1.52;1.10;;;26.10;43.50;;;;;;5033145;28;20250;-76
2023/05/27 11:07:00;;;;;;;2.95;1.10;;;26.40;45.30;;;;;;5034954;28;20589;-75
2023/05/27 11:09:43;;;;;;;3.40;1.00;;;26.60;43.10;;;;;;5033446;28;20262;-75
2023/05/27 11:12:16;;;;;;;3.67;1.25;;;26.90;42.70;;;;;;5033429;28;20290;-74
2023/05/27 11:14:54;;;;;;;2.42;1.30;;;26.40;41.70;;;;;;5033621;28;20227;-75
2023/05/27 11:17:22;;;;;;;3.17;1.27;;;26.10;43.00;;;;;;5033703;28;20624;-75
2023/05/27 11:19:50;;;;;;;2.67;1.25;;;26.20;42.80;;;;;;5033298;28;20220;-76
2023/05/27 11:22:19;;;;;;;9.48;1.42;;;26.60;43.00;;;;;;5016903;28;20710;-75
2023/05/27 11:24:59;;;;;;;3.58;1.10;;;26.40;44.10;;;;;;5034520;28;20207;-74
2023/05/27 11:27:38;;;;;;;2.63;1.30;;;25.90;43.40;;;;;;5033171;28;20226;-77
2023/05/27 11:30:12;;;;;;;2.70;1.30;;;26.50;43.60;;;;;;5033106;28;20566;-76
2023/05/27 11:32:41;;;;;;;2.42;1.20;;;26.70;41.90;;;;;;5049716;28;20236;-75
2023/05/27 11:35:15;;;;;;;2.83;1.48;;;26.90;41.70;;;;;;5033049;28;20231;-75
2023/05/27 11:37:55;;;;;;;5.90;1.85;;;26.80;43.00;;;;;;5033369;28;20653;-75
2023/05/27 11:40:22;;;;;;;6.80;1.85;;;27.00;44.40;;;;;;5016362;28;20346;-75
2023/05/27 11:42:49;;;;;;;3.20;1.50;;;27.20;43.00;;;;;;5034488;28;20254;-75
2023/05/27 11:45:18;;;;;;;4.80;1.40;;;27.70;43.60;;;;;;5034034;28;20212;-75
2023/05/27 11:47:50;;;;;;;4.40;1.48;;;27.80;44.20;;;;;;5034069;28;20297;-76
2023/05/27 11:50:19;;;;;;;1.65;1.02;;;28.00;42.50;;;;;;5032663;28;20223;-75
2023/05/27 11:52:54;;;;;;;2.35;1.13;;;27.90;42.50;;;;;;5032510;28;20237;-75
2023/05/27 11:55:22;;;;;;;2.67;1.10;;;27.90;41.70;;;;;;5016439;28;20223;-75
2023/05/27 11:57:50;;;;;;;2.70;1.05;;;27.70;41.50;;;;;;5016549;28;20261;-74
2023/05/27 12:00:17;;;;;;;1.83;1.00;;;27.20;42.50;;;;;;5033155;28;20779;-74
2023/05/27 12:02:44;;;;;;;3.95;1.20;;;27.40;42.20;;;;;;5032398;28;20218;-74
2023/05/27 12:05:11;;;;;;;2.35;1.00;;;27.70;40.70;;;;;;5032588;28;20223;-73
2023/05/27 12:07:51;;;;;;;3.47;1.20;;;27.50;41.40;;;;;;5032371;28;20654;-74
2023/05/27 12:10:18;;;;;;;2.65;1.25;;;27.80;41.60;;;;;;5032426;28;20265;-74
2023/05/27 12:12:45;;;;;;;3.72;1.20;;;27.90;39.60;;;;;;5034101;28;20301;-74
2023/05/27 12:15:12;;;;;;;2.60;1.00;;;27.50;38.70;;;;;;5031521;28;20293;-75
2023/05/27 12:17:39;;;;;;;3.28;1.02;;;28.10;40.10;;;;;;5033197;28;20253;-72
2023/05/27 12:20:08;;;;;;;5.93;1.27;;;28.50;39.80;;;;;;5033345;28;20208;-76
2023/05/27 12:22:35;;;;;;;2.58;1.15;;;28.70;39.20;;;;;;5033675;28;20191;-75
2023/05/27 12:25:02;;;;;;;2.63;0.80;;;28.90;39.80;;;;;;5032031;28;20224;-75
2023/05/27 12:27:33;;;;;;;1.90;0.98;;;28.70;38.90;;;;;;5016191;28;20675;-75
2023/05/27 12:30:00;;;;;;;5.38;1.13;;;28.60;37.60;;;;;;5033225;28;20774;-75
2023/05/27 12:32:26;;;;;;;1.48;1.00;;;28.80;39.20;;;;;;5031816;28;20326;-73
2023/05/27 12:34:53;;;;;;;5.13;0.90;;;28.70;37.80;;;;;;5015571;28;20675;-74
2023/05/27 12:37:20;;;;;;;2.53;0.95;;;28.80;39.30;;;;;;5033457;28;20195;-74
2023/05/27 12:39:47;;;;;;;2.08;0.98;;;28.30;37.50;;;;;;5032094;28;20224;-74
2023/05/27 12:42:15;;;;;;;3.85;1.00;;;28.40;39.50;;;;;;5033029;28;20192;-74
2023/05/27 12:44:42;;;;;;;3.28;1.00;;;28.70;38.50;;;;;;5031764;28;20216;-74
2023/05/27 12:47:09;;;;;;;1.90;1.00;;;28.80;38.00;;;;;;5031980;28;20207;-75
2023/05/27 12:49:36;;;;;;;2.47;1.05;;;29.20;38.10;;;;;;5031598;28;20582;-74
2023/05/27 12:52:04;;;;;;;2.42;1.20;;;29.60;38.70;;;;;;5031914;28;20709;-74
2023/05/27 12:54:31;;;;;;;4.03;1.08;;;29.70;38.90;;;;;;5031204;28;20230;-74
2023/05/27 12:56:58;;;;;;;4.68;1.10;;;29.80;37.70;;;;;;5032842;28;20275;-73
2023/05/27 12:59:25;;;;;;;3.92;1.10;;;30.00;39.20;;;;;;5032782;28;20207;-73
2023/05/27 13:01:52;;;;;;;2.15;1.00;;;29.90;35.70;;;;;;5031692;28;20200;-74
2023/05/27 13:04:19;;;;;;;2.00;1.02;;;29.40;37.50;;;;;;5031758;28;20212;-73
2023/05/27 13:06:46;;;;;;;1.90;1.00;;;29.30;36.90;;;;;;5032665;28;20254;-74
2023/05/27 13:09:13;;;;;;;3.78;0.90;;;28.80;37.60;;;;;;5031303;28;20246;-75
2023/05/27 13:11:40;;;;;;;1.80;0.80;;;28.40;37.20;;;;;;5014940;28;20203;-80
2023/05/27 13:14:08;;;;;;;3.65;1.20;;;28.20;37.20;;;;;;5031200;28;20223;-75